createdAt,value
2022-11-17T00:00:00.266Z,0
2022-11-17T00:05:00.242Z,0
2022-11-17T00:10:00.223Z,0
2022-11-17T00:15:00.308Z,0
2022-11-17T00:20:00.290Z,0
2022-11-17T00:25:00.274Z,0
2022-11-17T00:30:00.259Z,0
2022-11-17T00:35:00.247Z,0
2022-11-17T00:40:01.205Z,0
2022-11-17T00:45:00.249Z,0
2022-11-17T00:50:00.244Z,0
2022-11-17T00:55:00.282Z,0
2022-11-17T01:00:00.267Z,0
2022-11-17T01:05:00.245Z,0
2022-11-17T01:10:00.209Z,0
2022-11-17T01:15:00.216Z,0
2022-11-17T01:20:00.228Z,0
2022-11-17T01:25:00.237Z,0
2022-11-17T01:30:00.319Z,0
2022-11-17T01:35:00.207Z,0
2022-11-17T01:40:00.295Z,0
2022-11-17T01:45:00.211Z,0
2022-11-17T01:50:00.321Z,0
2022-11-17T01:55:00.246Z,0
2022-11-17T02:00:00.261Z,0
2022-11-17T02:05:00.264Z,0
2022-11-17T02:10:00.256Z,0
2022-11-17T02:15:00.192Z,0
2022-11-17T02:20:00.243Z,0
2022-11-17T02:25:00.257Z,0
2022-11-17T02:30:00.239Z,0
2022-11-17T02:35:00.196Z,0
2022-11-17T02:40:00.246Z,0
2022-11-17T02:45:00.216Z,0
2022-11-17T02:50:00.201Z,0
2022-11-17T02:55:00.228Z,0
2022-11-17T03:00:00.239Z,0
2022-11-17T03:05:00.207Z,0
2022-11-17T03:10:00.226Z,0
2022-11-17T03:15:00.218Z,0
2022-11-17T03:20:00.208Z,0
2022-11-17T03:25:00.248Z,0
2022-11-17T03:30:00.205Z,0
2022-11-17T03:35:00.255Z,0
2022-11-17T03:40:00.240Z,0
2022-11-17T03:45:00.198Z,0
2022-11-17T03:50:00.222Z,0
2022-11-17T03:55:00.266Z,0
2022-11-17T04:00:00.339Z,0
2022-11-17T04:05:00.236Z,0
2022-11-17T04:10:00.259Z,0
2022-11-17T04:15:00.239Z,0
2022-11-17T04:20:00.265Z,0
2022-11-17T04:25:00.214Z,0
2022-11-17T04:30:00.251Z,0
2022-11-17T04:35:00.222Z,0
2022-11-17T04:40:00.263Z,0
2022-11-17T04:45:00.218Z,0
2022-11-17T04:50:00.202Z,0
2022-11-17T04:55:00.211Z,0
2022-11-17T05:00:00.243Z,0
2022-11-17T05:05:00.236Z,0
2022-11-17T05:10:00.240Z,0
2022-11-17T05:15:00.252Z,0
2022-11-17T05:20:00.239Z,0
2022-11-17T05:25:00.247Z,0
2022-11-17T05:30:00.252Z,0
2022-11-17T05:35:00.234Z,0
2022-11-17T05:40:00.251Z,0
2022-11-17T05:45:00.249Z,0
2022-11-17T05:50:00.233Z,0
2022-11-17T05:55:00.232Z,0
2022-11-17T06:00:00.249Z,0
2022-11-17T06:05:00.249Z,0
2022-11-17T06:10:00.240Z,0
2022-11-17T06:15:00.218Z,0
2022-11-17T06:20:00.288Z,0
2022-11-17T06:25:00.295Z,0
2022-11-17T06:30:00.259Z,2
2022-11-17T06:35:00.229Z,4
2022-11-17T06:40:00.253Z,3
2022-11-17T06:45:00.219Z,5
2022-11-17T06:50:00.205Z,6
2022-11-17T06:55:00.238Z,17
2022-11-17T07:00:00.281Z,27
2022-11-17T07:05:00.242Z,35
2022-11-17T07:10:00.254Z,46
2022-11-17T07:15:00.284Z,194
2022-11-17T07:20:00.275Z,289
2022-11-17T07:25:00.251Z,370
2022-11-17T07:30:00.332Z,417
2022-11-17T07:35:00.237Z,454
2022-11-17T07:40:00.311Z,370
2022-11-17T07:45:00.243Z,418
2022-11-17T07:50:00.266Z,477
2022-11-17T07:55:00.264Z,576
2022-11-17T08:00:00.223Z,508
2022-11-17T08:05:00.276Z,683
2022-11-17T08:10:00.231Z,461
2022-11-17T08:15:00.245Z,451
2022-11-17T08:20:00.258Z,591
2022-11-17T08:25:00.294Z,957
2022-11-17T08:30:00.248Z,1055
2022-11-17T08:35:00.238Z,839
2022-11-17T08:40:00.238Z,826
2022-11-17T08:45:00.261Z,661
2022-11-17T08:50:00.257Z,1121
2022-11-17T08:55:00.357Z,1261
2022-11-17T09:00:00.239Z,1064
2022-11-17T09:05:00.205Z,1110
2022-11-17T09:10:00.257Z,1848
2022-11-17T09:15:00.241Z,1848
2022-11-17T09:20:00.242Z,1976
2022-11-17T09:25:00.233Z,1557
2022-11-17T09:30:00.229Z,1369
2022-11-17T09:35:00.239Z,1563
2022-11-17T09:40:00.240Z,1847
2022-11-17T09:45:00.233Z,1959
2022-11-17T09:50:00.241Z,1945
2022-11-17T09:55:00.231Z,3998
2022-11-17T10:00:00.439Z,3538
2022-11-17T10:05:00.251Z,2168
2022-11-17T10:10:00.312Z,1920
2022-11-17T10:15:00.205Z,2562
2022-11-17T10:20:00.253Z,3125
2022-11-17T10:25:00.296Z,2428
2022-11-17T10:30:00.231Z,2640
2022-11-17T10:35:00.268Z,2423
2022-11-17T10:40:00.221Z,2156
2022-11-17T10:45:00.241Z,1517
2022-11-17T10:50:00.262Z,1337
2022-11-17T10:55:00.195Z,1578
2022-11-17T11:00:00.229Z,1575
2022-11-17T11:05:00.246Z,2027
2022-11-17T11:10:00.205Z,1793
2022-11-17T11:15:00.236Z,1584
2022-11-17T11:20:00.238Z,2087
2022-11-17T11:25:00.283Z,2644
2022-11-17T11:30:00.291Z,1420
2022-11-17T11:35:00.248Z,1686
2022-11-17T11:40:00.236Z,2142
2022-11-17T11:45:00.244Z,3568
2022-11-17T11:50:00.232Z,3167
2022-11-17T11:55:00.229Z,3068
2022-11-17T12:00:04.125Z,4036
2022-11-17T12:05:00.263Z,2737
2022-11-17T12:10:00.235Z,4503
2022-11-17T12:15:00.217Z,3785
2022-11-17T12:20:00.206Z,3077
2022-11-17T12:25:00.232Z,2312
2022-11-17T12:30:00.330Z,2936
2022-11-17T12:35:00.203Z,3300
2022-11-17T12:40:00.204Z,3454
2022-11-17T12:45:00.264Z,3454
2022-11-17T12:50:00.247Z,3454
2022-11-17T12:55:00.239Z,3070
2022-11-17T13:00:00.274Z,3455
2022-11-17T13:05:00.253Z,3455
2022-11-17T13:10:00.261Z,2936
2022-11-17T13:15:00.232Z,2613
2022-11-17T13:20:00.282Z,2324
2022-11-17T13:25:00.254Z,2324
2022-11-17T13:30:00.232Z,2324
2022-11-17T13:35:00.268Z,2070
2022-11-17T13:40:00.230Z,1704
2022-11-17T13:45:00.292Z,1636
2022-11-17T13:50:00.225Z,1294
2022-11-17T13:55:00.225Z,1294
2022-11-17T14:00:00.240Z,1295
2022-11-17T14:05:00.225Z,1151
2022-11-17T14:10:00.232Z,937
2022-11-17T14:15:00.232Z,903
2022-11-17T14:20:00.255Z,1338
2022-11-17T14:25:00.260Z,1338
2022-11-17T14:30:00.210Z,930
2022-11-17T14:35:00.223Z,605
2022-11-17T14:40:00.191Z,769
2022-11-17T14:45:00.250Z,769
2022-11-17T14:50:00.201Z,684
2022-11-17T14:55:00.243Z,639
2022-11-17T15:00:00.375Z,568
2022-11-17T15:05:00.694Z,482
2022-11-17T15:10:00.210Z,363
2022-11-17T15:15:00.237Z,339
2022-11-17T15:20:00.250Z,339
2022-11-17T15:25:00.221Z,261
2022-11-17T15:30:00.229Z,221
2022-11-17T15:35:00.283Z,158
2022-11-17T15:40:00.212Z,148
2022-11-17T15:45:00.263Z,101
2022-11-17T15:50:00.277Z,56
2022-11-17T15:55:00.208Z,33
2022-11-17T16:00:00.475Z,16
2022-11-17T16:05:00.221Z,8
2022-11-17T16:10:00.272Z,4
2022-11-17T16:15:00.269Z,2
2022-11-17T16:25:00.255Z,0
2022-11-17T16:30:00.259Z,0
2022-11-17T16:35:00.261Z,0
2022-11-17T16:40:00.215Z,0
2022-11-17T16:45:00.234Z,0
2022-11-17T16:50:00.243Z,0
2022-11-17T16:55:04.634Z,0
2022-11-17T17:00:00.286Z,0
2022-11-17T17:05:00.216Z,0
2022-11-17T17:10:00.219Z,0
2022-11-17T17:15:00.227Z,0
2022-11-17T17:20:00.321Z,0
2022-11-17T17:25:00.181Z,0
2022-11-17T17:30:00.355Z,0
2022-11-17T17:35:00.233Z,0
2022-11-17T17:40:00.254Z,0
2022-11-17T17:45:00.227Z,0
2022-11-17T17:50:00.196Z,0
2022-11-17T17:55:00.356Z,0
2022-11-17T18:00:00.212Z,0
2022-11-17T18:05:00.266Z,0
2022-11-17T18:10:00.248Z,0
2022-11-17T18:15:00.273Z,0
2022-11-17T18:20:00.243Z,0
2022-11-17T18:25:00.239Z,0
2022-11-17T18:30:00.201Z,0
2022-11-17T18:35:00.224Z,0
2022-11-17T18:40:00.268Z,0
2022-11-17T18:45:00.214Z,0
2022-11-17T18:50:00.247Z,0
2022-11-17T18:55:00.249Z,0
2022-11-17T19:00:00.248Z,0
2022-11-17T19:05:00.243Z,0
2022-11-17T19:10:00.196Z,0
2022-11-17T19:15:00.244Z,0
2022-11-17T19:20:00.251Z,0
2022-11-17T19:25:00.266Z,0
2022-11-17T19:30:00.216Z,0
2022-11-17T19:35:11.811Z,0
2022-11-17T19:40:00.272Z,0
2022-11-17T19:45:00.239Z,0
2022-11-17T19:50:00.250Z,0
2022-11-17T19:55:00.196Z,0
2022-11-17T20:00:00.340Z,0
2022-11-17T20:05:00.289Z,0
2022-11-17T20:10:00.250Z,0
2022-11-17T20:15:00.314Z,0
2022-11-17T20:20:00.356Z,0
2022-11-17T20:25:03.429Z,0
2022-11-17T20:30:00.304Z,0
2022-11-17T20:35:00.248Z,0
2022-11-17T20:40:00.175Z,0
2022-11-17T20:45:00.238Z,0
2022-11-17T20:50:00.244Z,0
2022-11-17T20:55:00.251Z,0
2022-11-17T21:00:00.310Z,0
2022-11-17T21:05:00.250Z,0
2022-11-17T21:10:00.202Z,0
2022-11-17T21:15:00.405Z,0
2022-11-17T21:20:00.265Z,0
2022-11-17T21:25:00.211Z,0
2022-11-17T21:30:00.239Z,0
2022-11-17T21:35:00.264Z,0
2022-11-17T21:40:00.226Z,0
2022-11-17T21:45:00.237Z,0
2022-11-17T21:50:00.240Z,0
2022-11-17T21:55:00.235Z,0
2022-11-17T22:00:00.238Z,0
2022-11-17T22:05:00.245Z,0
2022-11-17T22:10:00.237Z,0
2022-11-17T22:15:00.243Z,0
2022-11-17T22:20:00.273Z,0
2022-11-17T22:25:16.817Z,0
2022-11-17T22:30:00.231Z,0
2022-11-17T22:35:00.228Z,0
2022-11-17T22:40:00.251Z,0
2022-11-17T22:45:00.238Z,0
2022-11-17T22:50:00.238Z,0
2022-11-17T22:55:00.254Z,0
2022-11-17T23:00:00.285Z,0
2022-11-17T23:05:00.250Z,0
2022-11-17T23:10:00.246Z,0
2022-11-17T23:15:00.234Z,0
2022-11-17T23:20:00.252Z,0
2022-11-17T23:25:00.239Z,0
2022-11-17T23:30:00.218Z,0
2022-11-17T23:35:00.250Z,0
2022-11-17T23:40:00.241Z,0
2022-11-17T23:45:00.263Z,0
2022-11-17T23:50:00.279Z,0
2022-11-17T23:55:00.225Z,0
